CFS7757 KMAF-KLBB
Flight info
| Callsign | CFS7757 |
|---|---|
| Flight time | N/A |
| Altitude | 14000 |
| Route | DCT MAF V81 LBB DCT |
| Aircraft | AT73/M-SDFGIRY/S |
Departure
| Time | 2026-04-25 22:33 |
|---|---|
| Airport | Midland International Air and Space Port (KMAF) |
Arrival
| Time | N/A |
|---|---|
| Airport | Lubbock Preston Smith International Airport (KLBB) |
| Time | Latitude | Longitude | Altitude | Speed | Heading |
|---|---|---|---|---|---|
| 2026-04-25 22:12 | 31.93480 | -102.20651 | 2865 ft | 0 kts | 355° |
| 2026-04-25 22:21 | 31.93466 | -102.20650 | 2865 ft | 4 kts | 30° |
| 2026-04-25 22:21 | 31.93457 | -102.20671 | 2865 ft | 4 kts | 85° |
| 2026-04-25 22:22 | 31.93456 | -102.20683 | 2865 ft | 1 kts | 84° |
| 2026-04-25 22:27 | 31.93457 | -102.20678 | 2865 ft | 6 kts | 85° |
| 2026-04-25 22:27 | 31.93459 | -102.20573 | 2864 ft | 15 kts | 89° |
| 2026-04-25 22:28 | 31.93452 | -102.20489 | 2864 ft | 5 kts | 125° |
| 2026-04-25 22:28 | 31.93427 | -102.20480 | 2864 ft | 3 kts | 172° |
| 2026-04-25 22:28 | 31.93415 | -102.20478 | 2864 ft | 2 kts | 175° |
| 2026-04-25 22:28 | 31.93377 | -102.20475 | 2864 ft | 9 kts | 176° |
| 2026-04-25 22:29 | 31.93295 | -102.20467 | 2864 ft | 15 kts | 172° |
| 2026-04-25 22:29 | 31.93226 | -102.20411 | 2862 ft | 6 kts | 133° |
| 2026-04-25 22:29 | 31.93208 | -102.20307 | 2862 ft | 21 kts | 57° |
| 2026-04-25 22:30 | 31.93452 | -102.19928 | 2858 ft | 32 kts | 53° |
| 2026-04-25 22:30 | 31.93556 | -102.19763 | 2861 ft | 24 kts | 53° |
| 2026-04-25 22:30 | 31.93650 | -102.19616 | 2863 ft | 23 kts | 53° |
| 2026-04-25 22:30 | 31.93717 | -102.19506 | 2864 ft | 27 kts | 54° |
| 2026-04-25 22:31 | 31.93824 | -102.19334 | 2863 ft | 18 kts | 53° |
| 2026-04-25 22:31 | 31.93869 | -102.19221 | 2863 ft | 11 kts | 103° |
| 2026-04-25 22:31 | 31.93909 | -102.19189 | 2861 ft | 6 kts | 299° |
| 2026-04-25 22:31 | 31.93910 | -102.19200 | 2862 ft | 0 kts | 266° |
| 2026-04-25 22:32 | 31.93910 | -102.19198 | 2862 ft | 3 kts | 264° |
| 2026-04-25 22:32 | 31.93909 | -102.19199 | 2862 ft | 0 kts | 248° |
| 2026-04-25 22:32 | 31.93909 | -102.19200 | 2862 ft | 0 kts | 248° |
| 2026-04-25 22:32 | 31.93904 | -102.19212 | 2862 ft | 6 kts | 248° |
| 2026-04-25 22:33 | 31.93778 | -102.19409 | 2863 ft | 66 kts | 234° |
| 2026-04-25 22:33 | 31.93384 | -102.20035 | 3042 ft | 109 kts | 232° |
| 2026-04-25 22:33 | 31.92974 | -102.20798 | 3770 ft | 110 kts | 253° |
| 2026-04-25 22:33 | 31.93115 | -102.21725 | 4353 ft | 130 kts | 277° |
| 2026-04-25 22:34 | 31.92819 | -102.22718 | 4944 ft | 137 kts | 237° |
| 2026-04-25 22:34 | 31.92647 | -102.23790 | 5607 ft | 145 kts | 288° |
| 2026-04-25 22:34 | 31.93438 | -102.24568 | 6327 ft | 168 kts | 341° |
| 2026-04-25 22:34 | 31.94619 | -102.24306 | 7107 ft | 184 kts | 30° |
| 2026-04-25 22:35 | 31.95569 | -102.23297 | 7949 ft | 183 kts | 40° |
| 2026-04-25 22:35 | 31.96543 | -102.22328 | 8798 ft | 183 kts | 34° |
| 2026-04-25 22:35 | 31.97569 | -102.21444 | 9644 ft | 182 kts | 30° |
| 2026-04-25 22:35 | 31.98643 | -102.20668 | 10421 ft | 181 kts | 25° |
| 2026-04-25 22:36 | 31.99756 | -102.19984 | 11176 ft | 181 kts | 20° |
| 2026-04-25 22:36 | 32.00907 | -102.19373 | 11910 ft | 183 kts | 15° |
| 2026-04-25 22:36 | 32.02108 | -102.18893 | 12647 ft | 181 kts | 5° |
| 2026-04-25 22:36 | 32.03344 | -102.18593 | 13403 ft | 182 kts | 359° |
| 2026-04-25 22:37 | 32.04623 | -102.18387 | 13940 ft | 195 kts | 357° |
| 2026-04-25 22:37 | 32.06111 | -102.18200 | 13987 ft | 233 kts | 358° |
| 2026-04-25 22:37 | 32.07804 | -102.17987 | 13996 ft | 262 kts | 360° |
| 2026-04-25 22:37 | 32.09691 | -102.17702 | 13999 ft | 283 kts | 1° |
| 2026-04-25 22:38 | 32.11674 | -102.17375 | 13993 ft | 287 kts | 2° |
| 2026-04-25 22:38 | 32.13657 | -102.17050 | 13984 ft | 289 kts | 1° |
| 2026-04-25 22:38 | 32.15686 | -102.16734 | 13976 ft | 299 kts | 2° |
| 2026-04-25 22:38 | 32.17752 | -102.16396 | 13968 ft | 299 kts | 2° |
| 2026-04-25 22:39 | 32.19809 | -102.16066 | 13955 ft | 298 kts | 1° |
| 2026-04-25 22:39 | 32.21866 | -102.15741 | 13944 ft | 298 kts | 1° |
| 2026-04-25 22:39 | 32.23914 | -102.15415 | 13936 ft | 297 kts | 1° |
| 2026-04-25 22:39 | 32.25963 | -102.15092 | 13925 ft | 297 kts | 1° |
| 2026-04-25 22:40 | 32.27326 | -102.14874 | 13919 ft | 297 kts | 1° |
| 2026-04-25 22:40 | 32.29370 | -102.14544 | 13907 ft | 297 kts | 1° |
| 2026-04-25 22:40 | 32.31414 | -102.14213 | 13906 ft | 297 kts | 2° |
| 2026-04-25 22:40 | 32.33464 | -102.13880 | 13892 ft | 298 kts | 2° |
| 2026-04-25 22:41 | 32.35519 | -102.13550 | 13858 ft | 298 kts | 2° |
| 2026-04-25 22:41 | 32.37573 | -102.13216 | 13861 ft | 298 kts | 2° |
| 2026-04-25 22:41 | 32.39624 | -102.12886 | 13858 ft | 298 kts | 2° |
| 2026-04-25 22:41 | 32.41683 | -102.12556 | 13857 ft | 298 kts | 1° |
| 2026-04-25 22:42 | 32.43735 | -102.12224 | 13856 ft | 298 kts | 2° |
| 2026-04-25 22:42 | 32.45788 | -102.11894 | 13865 ft | 298 kts | 2° |
| 2026-04-25 22:42 | 32.47839 | -102.11559 | 13876 ft | 297 kts | 2° |
| 2026-04-25 22:42 | 32.49890 | -102.11231 | 13887 ft | 297 kts | 2° |
| 2026-04-25 22:43 | 32.51937 | -102.10906 | 13895 ft | 297 kts | 2° |
| 2026-04-25 22:43 | 32.53985 | -102.10584 | 13906 ft | 297 kts | 2° |
| 2026-04-25 22:43 | 32.56031 | -102.10237 | 13916 ft | 297 kts | 2° |
| 2026-04-25 22:43 | 32.58081 | -102.09897 | 13939 ft | 298 kts | 2° |
| 2026-04-25 22:44 | 32.60134 | -102.09550 | 13940 ft | 298 kts | 2° |
| 2026-04-25 22:44 | 32.62162 | -102.09208 | 13948 ft | 298 kts | 2° |
| 2026-04-25 22:44 | 32.64218 | -102.08871 | 13952 ft | 298 kts | 1° |
| 2026-04-25 22:44 | 32.66278 | -102.08538 | 13961 ft | 298 kts | 1° |
| 2026-04-25 22:45 | 32.68330 | -102.08210 | 13968 ft | 298 kts | 1° |
| 2026-04-25 22:45 | 32.70389 | -102.07878 | 13970 ft | 298 kts | 1° |
| 2026-04-25 22:45 | 32.72446 | -102.07544 | 13977 ft | 298 kts | 1° |
| 2026-04-25 22:45 | 32.74502 | -102.07207 | 13978 ft | 298 kts | 1° |
| 2026-04-25 22:46 | 32.76557 | -102.06875 | 13983 ft | 298 kts | 1° |
| 2026-04-25 22:46 | 32.78616 | -102.06539 | 13984 ft | 299 kts | 1° |
| 2026-04-25 22:46 | 32.80678 | -102.06202 | 13984 ft | 299 kts | 1° |
| 2026-04-25 22:46 | 32.82735 | -102.05868 | 13976 ft | 299 kts | 1° |
| 2026-04-25 22:47 | 32.84792 | -102.05532 | 13972 ft | 299 kts | 1° |
| 2026-04-25 22:47 | 32.86853 | -102.05199 | 13964 ft | 299 kts | 1° |
| 2026-04-25 22:47 | 32.88915 | -102.04862 | 13957 ft | 299 kts | 1° |
| 2026-04-25 22:47 | 32.90978 | -102.04523 | 13954 ft | 299 kts | 1° |
| 2026-04-25 22:48 | 32.93038 | -102.04188 | 13946 ft | 299 kts | 2° |
| 2026-04-25 22:48 | 32.95094 | -102.03849 | 13939 ft | 299 kts | 1° |
| 2026-04-25 22:48 | 32.97137 | -102.03518 | 13930 ft | 300 kts | 1° |
| 2026-04-25 22:48 | 32.99211 | -102.03185 | 13916 ft | 301 kts | 1° |
| 2026-04-25 22:49 | 33.01285 | -102.02851 | 13911 ft | 301 kts | 1° |
| 2026-04-25 22:49 | 33.03361 | -102.02513 | 13899 ft | 301 kts | 1° |
| 2026-04-25 22:49 | 33.05434 | -102.02174 | 13860 ft | 301 kts | 1° |
| 2026-04-25 22:49 | 33.07514 | -102.01838 | 13866 ft | 301 kts | 1° |
| 2026-04-25 22:50 | 33.09591 | -102.01499 | 13866 ft | 301 kts | 1° |
| 2026-04-25 22:50 | 33.11663 | -102.01161 | 13867 ft | 299 kts | 1° |
| 2026-04-25 22:50 | 31.93480 | -102.20651 | 13865 ft | 0 kts | 355° |